createdAt,value
2019-05-20T00:00:32.308Z,97135.63
2019-05-20T00:02:58.301Z,97133.39
2019-05-20T00:05:24.519Z,97132.33
2019-05-20T00:07:50.878Z,97138.31
2019-05-20T00:10:17.026Z,97143.26
2019-05-20T00:12:43.047Z,97144.11
2019-05-20T00:15:09.373Z,97142.81
2019-05-20T00:17:35.382Z,97143.81
2019-05-20T00:20:04.763Z,97138.70
2019-05-20T00:22:30.945Z,97141.08
2019-05-20T00:24:56.898Z,97140.50
2019-05-20T00:27:22.866Z,97138.20
2019-05-20T00:29:49.010Z,97147.74
2019-05-20T00:32:15.096Z,97146.70
2019-05-20T00:34:41.136Z,97148.14
2019-05-20T00:37:07.388Z,97145.67
2019-05-20T00:39:33.363Z,97152.77
2019-05-20T00:41:59.320Z,97152.83
2019-05-20T00:44:25.357Z,97160.00
2019-05-20T00:46:51.599Z,97156.94
2019-05-20T00:49:17.671Z,97149.98
2019-05-20T00:51:44.604Z,97143.64
2019-05-20T00:54:11.080Z,97150.34
2019-05-20T00:56:37.480Z,97152.42
2019-05-20T00:59:04.217Z,97146.72
2019-05-20T01:01:30.189Z,97140.92
2019-05-20T01:03:56.123Z,97140.38
2019-05-20T01:06:22.222Z,97141.29
2019-05-20T01:08:48.311Z,97139.97
2019-05-20T01:11:14.324Z,97134.03
2019-05-20T01:13:40.266Z,97133.26
2019-05-20T01:16:06.646Z,97132.44
2019-05-20T01:18:32.601Z,97133.48
2019-05-20T01:20:59.010Z,97135.33
2019-05-20T01:23:25.027Z,97128.48
2019-05-20T01:25:51.015Z,97136.13
2019-05-20T01:28:16.950Z,97132.62
2019-05-20T01:30:42.930Z,97133.55
2019-05-20T01:33:13.694Z,97134.09
2019-05-20T01:35:36.883Z,97133.14
2019-05-20T01:38:02.822Z,97130.45
2019-05-20T01:40:29.109Z,97128.48
2019-05-20T01:42:55.199Z,97137.70
2019-05-20T01:45:21.182Z,97124.23
2019-05-20T01:47:47.175Z,97134.48
2019-05-20T01:50:13.217Z,97128.70
2019-05-20T01:52:39.253Z,97123.48
2019-05-20T01:55:07.416Z,97118.81
2019-05-20T01:57:33.501Z,97118.81
2019-05-20T01:59:59.534Z,97119.32
2019-05-20T02:02:25.503Z,97120.17
2019-05-20T02:04:51.606Z,97117.61
2019-05-20T02:07:17.695Z,97113.37
2019-05-20T02:09:43.830Z,97122.61
2019-05-20T02:12:10.070Z,97117.24
2019-05-20T02:14:36.117Z,97121.44
2019-05-20T02:17:02.867Z,97123.20
2019-05-20T02:19:29.150Z,97120.19
2019-05-20T02:21:55.123Z,97111.10
2019-05-20T02:24:21.078Z,97111.10
2019-05-20T02:26:47.284Z,97105.68
2019-05-20T02:29:13.237Z,97060.66
2019-05-20T02:31:39.336Z,97104.21
2019-05-20T02:34:05.393Z,97106.69
2019-05-20T02:36:31.418Z,97108.69
2019-05-20T02:38:58.655Z,97109.91
2019-05-20T02:41:25.573Z,97107.77
2019-05-20T02:43:52.660Z,97105.20
2019-05-20T02:46:18.847Z,97118.70
2019-05-20T02:48:44.874Z,97123.16
2019-05-20T02:51:10.946Z,97120.02
2019-05-20T02:53:36.879Z,97108.45
2019-05-20T02:56:03.077Z,97113.42
2019-05-20T02:58:29.199Z,97113.25
2019-05-20T03:00:55.563Z,97104.33
2019-05-20T03:03:21.601Z,97108.08
2019-05-20T03:05:47.703Z,97107.33
2019-05-20T03:08:13.972Z,97106.00
2019-05-20T03:10:40.202Z,97108.45
2019-05-20T03:13:06.289Z,97106.48
2019-05-20T03:15:32.285Z,97100.28
2019-05-20T03:17:58.265Z,97096.27
2019-05-20T03:20:24.432Z,97094.07
2019-05-20T03:22:50.511Z,97096.38
2019-05-20T03:25:16.654Z,97095.06
2019-05-20T03:27:42.615Z,97104.57
2019-05-20T03:30:10.459Z,97108.08
2019-05-20T03:32:36.647Z,97100.25
2019-05-20T03:35:05.112Z,97104.00
2019-05-20T03:37:31.306Z,97101.94
2019-05-20T03:39:57.247Z,97105.88
2019-05-20T03:42:23.214Z,97108.34
2019-05-20T03:44:49.149Z,97109.67
2019-05-20T03:47:15.493Z,97113.43
2019-05-20T03:49:42.092Z,97105.11
2019-05-20T03:52:08.168Z,97103.60
2019-05-20T03:54:34.114Z,97098.64
2019-05-20T03:57:01.590Z,97095.50
2019-05-20T03:59:27.677Z,97090.30
2019-05-20T04:01:55.007Z,97093.30
2019-05-20T04:04:24.843Z,97090.63
2019-05-20T04:06:49.108Z,97097.84
2019-05-20T04:09:15.343Z,97095.38
2019-05-20T04:11:41.301Z,97095.59
2019-05-20T04:14:07.382Z,97095.19
2019-05-20T04:16:33.418Z,97096.27
2019-05-20T04:18:59.571Z,97093.38
2019-05-20T04:21:25.960Z,97091.81
2019-05-20T04:23:53.050Z,97089.98
2019-05-20T04:26:19.065Z,97091.75
2019-05-20T04:28:45.363Z,97087.56
2019-05-20T04:31:11.446Z,97085.73
2019-05-20T04:33:37.689Z,97090.78
2019-05-20T04:36:03.809Z,97084.41
2019-05-20T04:38:30.065Z,97085.73
2019-05-20T04:40:56.055Z,97089.41
2019-05-20T04:43:22.051Z,97081.79
2019-05-20T04:45:49.100Z,97081.66
2019-05-20T04:48:15.086Z,97089.03
2019-05-20T04:50:41.132Z,97087.51
2019-05-20T04:53:07.400Z,97078.02
2019-05-20T04:55:33.349Z,97080.06
2019-05-20T04:57:59.544Z,97079.88
2019-05-20T05:00:49.253Z,97078.14
2019-05-20T05:03:15.358Z,97083.36
2019-05-20T05:05:41.488Z,97077.70
2019-05-20T05:08:07.457Z,97069.23
2019-05-20T05:10:33.504Z,97067.28
2019-05-20T05:12:59.596Z,97068.68
2019-05-20T05:15:25.548Z,97074.08
2019-05-20T05:17:51.723Z,97073.25
2019-05-20T05:20:18.764Z,97072.79
2019-05-20T05:22:44.957Z,97070.17
2019-05-20T05:25:11.246Z,97080.59
2019-05-20T05:27:37.548Z,97084.82
2019-05-20T05:30:04.642Z,97081.77
2019-05-20T05:32:30.733Z,97090.36
2019-05-20T05:34:56.851Z,97091.98
2019-05-20T05:37:22.823Z,97092.82
2019-05-20T05:39:48.769Z,97100.66
2019-05-20T05:42:14.769Z,97090.85
2019-05-20T05:44:40.830Z,97087.58
2019-05-20T05:47:06.807Z,97087.48
2019-05-20T05:49:32.964Z,97087.42
2019-05-20T05:51:58.962Z,97083.38
2019-05-20T05:54:26.293Z,97082.21
2019-05-20T05:56:52.377Z,97084.79
2019-05-20T05:59:18.338Z,97078.61
2019-05-20T06:01:44.774Z,97078.61
2019-05-20T06:04:10.717Z,97087.61
2019-05-20T06:06:36.907Z,97063.73
2019-05-20T06:09:05.259Z,97074.39
2019-05-20T06:11:31.381Z,97073.39
2019-05-20T06:13:59.523Z,97078.20
2019-05-20T06:16:35.895Z,97078.79
2019-05-20T06:18:53.364Z,97086.80
2019-05-20T06:21:19.606Z,97081.46
2019-05-20T06:23:45.561Z,97083.99
2019-05-20T06:26:11.827Z,97079.59
2019-05-20T06:28:37.844Z,97083.61
2019-05-20T06:31:05.332Z,97076.83
2019-05-20T06:33:31.741Z,97077.22
2019-05-20T06:35:57.938Z,97079.18
2019-05-20T06:38:24.518Z,97080.39
2019-05-20T06:40:50.589Z,97075.08
2019-05-20T06:43:16.788Z,97078.30
2019-05-20T06:45:42.836Z,97085.98
2019-05-20T06:48:09.007Z,97090.43
2019-05-20T06:50:35.125Z,97089.24
2019-05-20T06:53:01.362Z,97084.91
2019-05-20T06:55:28.910Z,97082.73
2019-05-20T06:57:54.996Z,97084.58
2019-05-20T07:00:30.780Z,97092.81
2019-05-20T07:02:57.009Z,97084.21
2019-05-20T07:05:22.992Z,97086.51
2019-05-20T07:07:49.083Z,97090.17
2019-05-20T07:10:15.270Z,97095.78
2019-05-20T07:12:41.981Z,97094.97
2019-05-20T07:15:08.661Z,97102.38
2019-05-20T07:17:35.398Z,97096.73
2019-05-20T07:20:02.156Z,97092.16
2019-05-20T07:22:28.243Z,97093.00
2019-05-20T07:24:55.314Z,97098.97
2019-05-20T07:27:21.499Z,97100.71
2019-05-20T07:29:47.690Z,97095.31
2019-05-20T07:32:13.851Z,97099.91
2019-05-20T07:34:39.941Z,97096.61
2019-05-20T07:37:05.987Z,97099.05
2019-05-20T07:39:33.101Z,97095.17
2019-05-20T07:41:59.310Z,97092.82
2019-05-20T07:44:26.410Z,97092.65
2019-05-20T07:46:52.974Z,97091.61
2019-05-20T07:49:19.346Z,97086.58
2019-05-20T07:51:46.494Z,97082.70
2019-05-20T07:54:13.805Z,97079.19
2019-05-20T07:56:45.000Z,97082.70
2019-05-20T07:59:14.169Z,97082.00
2019-05-20T08:01:40.498Z,97090.23
2019-05-20T08:04:06.828Z,97084.50
2019-05-20T08:06:33.159Z,97080.80
2019-05-20T08:08:59.195Z,97090.42
2019-05-20T08:11:25.426Z,97089.66
2019-05-20T08:13:51.557Z,97088.59
2019-05-20T08:16:17.758Z,97079.00
2019-05-20T08:18:43.990Z,97081.20
2019-05-20T08:21:10.163Z,97084.11
2019-05-20T08:23:36.317Z,97079.17
2019-05-20T08:26:02.539Z,97089.42
2019-05-20T08:28:28.932Z,97081.24
2019-05-20T08:30:55.427Z,97090.39
2019-05-20T08:33:21.762Z,97085.62
2019-05-20T08:35:48.807Z,97082.30
2019-05-20T08:38:15.155Z,97079.14
2019-05-20T08:40:41.408Z,97080.42
2019-05-20T08:43:07.489Z,97074.77
2019-05-20T08:45:34.053Z,97069.95
2019-05-20T08:48:00.025Z,97074.10
2019-05-20T08:50:25.999Z,97070.12
2019-05-20T08:52:52.096Z,97067.31
2019-05-20T08:55:18.450Z,97075.01
2019-05-20T08:57:44.728Z,97071.41
2019-05-20T09:00:23.245Z,97074.59
2019-05-20T09:02:48.448Z,97079.70
2019-05-20T09:05:14.805Z,97075.90
2019-05-20T09:07:40.885Z,97076.64
2019-05-20T09:10:07.193Z,97078.40
2019-05-20T09:12:33.598Z,97075.04
2019-05-20T09:14:59.585Z,97079.70
2019-05-20T09:17:25.704Z,97067.48
2019-05-20T09:19:51.826Z,97056.87
2019-05-20T09:22:17.994Z,97064.91
2019-05-20T09:24:44.174Z,97062.16
2019-05-20T09:27:10.452Z,97060.91
2019-05-20T09:29:38.149Z,97051.80
2019-05-20T09:32:04.381Z,97051.20
2019-05-20T09:34:30.759Z,97050.91
2019-05-20T09:36:56.811Z,97041.77
2019-05-20T09:39:23.156Z,97048.25
2019-05-20T09:41:49.258Z,97048.33
2019-05-20T09:44:15.271Z,97046.64
2019-05-20T09:46:41.527Z,97049.16
2019-05-20T09:49:07.628Z,97048.14
2019-05-20T09:51:33.854Z,97050.83
2019-05-20T09:54:00.013Z,97044.65
2019-05-20T09:56:26.148Z,97050.75
2019-05-20T09:58:52.136Z,97051.96
2019-05-20T10:01:18.508Z,97049.50
2019-05-20T10:03:44.547Z,97044.98
2019-05-20T10:06:11.763Z,97051.13
2019-05-20T10:08:44.190Z,97054.98
2019-05-20T10:11:06.489Z,97052.00
2019-05-20T10:13:32.521Z,97044.23
2019-05-20T10:15:58.541Z,97050.30
2019-05-20T10:18:36.837Z,97051.80
2019-05-20T10:20:53.278Z,97048.02
2019-05-20T10:23:19.376Z,97056.75
2019-05-20T10:25:45.533Z,97056.34
2019-05-20T10:28:11.531Z,97058.59
2019-05-20T10:30:37.731Z,97051.42
2019-05-20T10:33:09.842Z,97046.17
2019-05-20T10:35:31.827Z,97048.61
2019-05-20T10:37:57.933Z,97047.25
2019-05-20T10:40:23.974Z,97047.39
2019-05-20T10:42:49.946Z,97047.48
2019-05-20T10:45:17.377Z,97046.86
2019-05-20T10:47:43.573Z,97049.30
2019-05-20T10:50:10.023Z,97050.38
2019-05-20T10:52:36.249Z,97046.75
2019-05-20T10:55:05.424Z,97050.30
2019-05-20T10:57:31.656Z,97046.45
2019-05-20T10:59:57.892Z,97057.05
2019-05-20T11:02:24.721Z,97047.61
2019-05-20T11:04:51.200Z,97045.16
2019-05-20T11:07:17.792Z,97038.72
2019-05-20T11:09:46.680Z,97041.59
2019-05-20T11:12:12.799Z,97036.28
2019-05-20T11:14:39.034Z,97036.44
2019-05-20T11:17:05.493Z,97043.26
2019-05-20T11:19:31.660Z,97034.09
2019-05-20T11:21:57.834Z,97023.59
2019-05-20T11:24:23.944Z,96952.64
2019-05-20T11:26:50.273Z,97018.50
2019-05-20T11:29:16.502Z,97019.23
2019-05-20T11:31:42.731Z,97015.92
2019-05-20T11:34:08.858Z,97009.30
2019-05-20T11:36:35.305Z,97005.07
2019-05-20T11:39:01.543Z,97000.87
2019-05-20T11:41:52.151Z,96991.36
2019-05-20T11:43:58.177Z,96976.56
2019-05-20T11:46:24.497Z,96967.80
2019-05-20T11:48:50.733Z,96969.25
2019-05-20T11:51:16.944Z,96963.41
2019-05-20T11:53:43.263Z,96962.05
2019-05-20T11:56:11.987Z,96956.77
2019-05-20T11:58:37.359Z,96955.80
2019-05-20T12:01:03.500Z,96948.16
2019-05-20T12:03:29.558Z,96944.66
2019-05-20T12:05:55.865Z,96929.11
2019-05-20T12:08:22.225Z,96925.69
2019-05-20T12:10:49.781Z,96917.42
2019-05-20T12:13:16.258Z,96910.12
2019-05-20T12:15:42.419Z,96917.05
2019-05-20T12:18:08.736Z,96906.55
2019-05-20T12:20:35.064Z,96909.61
2019-05-20T12:23:01.191Z,96920.40
2019-05-20T12:25:27.418Z,96932.20
2019-05-20T12:27:53.648Z,96942.32
2019-05-20T12:30:22.954Z,96954.23
2019-05-20T12:32:49.173Z,96960.52
2019-05-20T12:35:15.509Z,96993.31
2019-05-20T12:37:45.357Z,97051.22
2019-05-20T12:40:11.904Z,97085.86
2019-05-20T12:42:38.298Z,97125.72
2019-05-20T12:45:07.834Z,97092.61
2019-05-20T12:47:34.211Z,97071.75
2019-05-20T12:50:00.522Z,97062.14
2019-05-20T12:52:26.777Z,97041.52
2019-05-20T12:55:06.695Z,97044.66
2019-05-20T12:57:21.281Z,97034.02
2019-05-20T12:59:50.379Z,96997.94
2019-05-20T13:02:17.564Z,97017.69
2019-05-20T13:04:44.156Z,97023.03
2019-05-20T13:07:10.489Z,97022.63
2019-05-20T13:09:36.613Z,97019.23
2019-05-20T13:12:03.257Z,97013.12
2019-05-20T13:14:29.195Z,97008.80
2019-05-20T13:16:55.361Z,97013.58
2019-05-20T13:19:21.339Z,97005.24
2019-05-20T13:21:47.616Z,96991.73
2019-05-20T13:24:13.723Z,96984.22
2019-05-20T13:26:39.870Z,96973.47
2019-05-20T13:29:05.822Z,96966.57
2019-05-20T13:31:31.927Z,96959.44
2019-05-20T13:33:57.837Z,96956.86
2019-05-20T13:36:23.858Z,96953.68
2019-05-20T13:38:49.863Z,96970.13
2019-05-20T13:41:15.977Z,96983.08
2019-05-20T13:43:42.025Z,96971.50
2019-05-20T13:46:08.060Z,96976.87
2019-05-20T13:48:35.315Z,96967.92
2019-05-20T13:51:01.638Z,96586.37
2019-05-20T13:53:27.736Z,96962.25
2019-05-20T13:55:53.822Z,96958.34
2019-05-20T13:58:19.799Z,96964.25
2019-05-20T14:00:45.726Z,96965.49
2019-05-20T14:03:12.806Z,96962.55
2019-05-20T14:05:38.840Z,96966.84
2019-05-20T14:08:04.847Z,96962.91
2019-05-20T14:10:30.779Z,96965.61
2019-05-20T14:12:56.754Z,96966.69
2019-05-20T14:15:22.991Z,96972.26
2019-05-20T14:17:48.987Z,96982.06
2019-05-20T14:20:16.777Z,97039.76
2019-05-20T14:22:42.825Z,96886.13
2019-05-20T14:25:09.551Z,96996.02
2019-05-20T14:27:36.975Z,97009.98
2019-05-20T14:30:07.197Z,97001.16
2019-05-20T14:32:33.438Z,96984.42
2019-05-20T14:34:59.425Z,96971.86
2019-05-20T14:37:25.587Z,96965.93
2019-05-20T14:39:52.971Z,96964.45
2019-05-20T14:42:19.739Z,96965.59
2019-05-20T14:44:45.684Z,96986.69
2019-05-20T14:47:11.624Z,96973.09
2019-05-20T14:49:37.863Z,96993.02
2019-05-20T14:52:03.942Z,96969.28
2019-05-20T14:54:29.964Z,96976.94
2019-05-20T14:56:57.131Z,96981.23
2019-05-20T14:59:23.381Z,96988.93
2019-05-20T15:01:49.316Z,96992.98
2019-05-20T15:04:15.512Z,96997.66
2019-05-20T15:06:41.746Z,97050.76
2019-05-20T15:09:08.064Z,97086.53
2019-05-20T15:11:38.306Z,97086.88
2019-05-20T15:14:02.224Z,97092.33
2019-05-20T15:16:28.180Z,97087.58
2019-05-20T15:18:54.320Z,97096.25
2019-05-20T15:21:20.516Z,97098.80
2019-05-20T15:23:46.644Z,97103.92
2019-05-20T15:26:12.696Z,97090.04
2019-05-20T15:28:38.629Z,97093.16
2019-05-20T15:31:05.896Z,97084.00
2019-05-20T15:33:31.857Z,97073.56
2019-05-20T15:35:58.031Z,97059.88
2019-05-20T15:38:24.169Z,97055.77
2019-05-20T15:40:50.227Z,97047.48
2019-05-20T15:43:16.342Z,97048.27
2019-05-20T15:45:42.764Z,97058.86
2019-05-20T15:48:08.760Z,97066.70
2019-05-20T15:50:35.064Z,97073.98
2019-05-20T15:53:01.024Z,97076.33
2019-05-20T15:55:28.236Z,97078.44
2019-05-20T15:57:54.391Z,97084.48
2019-05-20T16:00:20.819Z,97082.33
2019-05-20T16:02:46.824Z,97079.66
2019-05-20T16:05:13.050Z,97081.86
2019-05-20T16:07:39.424Z,97079.69
2019-05-20T16:10:05.931Z,97081.66
2019-05-20T16:12:34.278Z,97079.07
2019-05-20T16:15:00.226Z,97080.92
2019-05-20T16:17:26.490Z,97082.15
2019-05-20T16:19:52.566Z,97078.33
2019-05-20T16:22:18.602Z,97076.84
2019-05-20T16:24:45.418Z,97072.05
2019-05-20T16:27:11.609Z,97068.50
2019-05-20T16:29:37.539Z,97068.05
2019-05-20T16:32:03.695Z,97071.67
2019-05-20T16:34:29.842Z,97068.45
2019-05-20T16:36:55.823Z,97078.91
2019-05-20T16:39:22.099Z,97074.37
2019-05-20T16:41:48.226Z,97079.53
2019-05-20T16:44:14.280Z,97076.52
2019-05-20T16:46:40.460Z,97083.41
2019-05-20T16:49:06.620Z,97097.42
2019-05-20T16:51:32.683Z,97108.22
2019-05-20T16:53:58.733Z,97107.12
2019-05-20T16:56:24.810Z,97107.31
2019-05-20T16:58:50.996Z,97109.15
2019-05-20T17:01:16.999Z,97101.52
2019-05-20T17:03:43.204Z,97098.03
2019-05-20T17:06:09.317Z,97088.64
2019-05-20T17:08:35.457Z,97072.25
2019-05-20T17:11:01.632Z,97065.36
2019-05-20T17:13:27.726Z,97058.80
2019-05-20T17:15:53.717Z,97047.77
2019-05-20T17:18:19.882Z,97047.99
2019-05-20T17:20:46.602Z,97050.94
2019-05-20T17:23:12.771Z,97052.84
2019-05-20T17:25:38.702Z,97063.45
2019-05-20T17:28:04.825Z,97065.50
2019-05-20T17:30:44.287Z,97063.90
2019-05-20T17:32:59.293Z,97069.09
2019-05-20T17:35:25.600Z,97068.55
2019-05-20T17:37:55.069Z,97068.27
2019-05-20T17:40:21.313Z,97071.20
2019-05-20T17:42:47.499Z,97073.78
2019-05-20T17:45:14.875Z,97074.66
2019-05-20T17:47:41.510Z,97079.80
2019-05-20T17:50:08.019Z,97085.32
2019-05-20T17:52:33.989Z,97080.94
2019-05-20T17:54:59.934Z,97089.41
2019-05-20T17:57:26.312Z,97097.28
2019-05-20T17:59:52.223Z,97097.22
2019-05-20T18:02:18.375Z,97093.91
2019-05-20T18:04:44.703Z,97100.96
2019-05-20T18:07:10.635Z,97103.39
2019-05-20T18:09:36.902Z,97099.08
2019-05-20T18:12:03.149Z,97097.98
2019-05-20T18:14:29.260Z,97100.59
2019-05-20T18:16:55.228Z,97107.95
2019-05-20T18:19:21.211Z,97100.25
2019-05-20T18:21:47.334Z,97093.81
2019-05-20T18:24:13.372Z,97083.73
2019-05-20T18:26:39.432Z,97084.11
2019-05-20T18:29:05.536Z,97085.25
2019-05-20T18:31:33.081Z,97075.39
2019-05-20T18:33:59.549Z,97067.19
2019-05-20T18:36:25.833Z,97066.10
2019-05-20T18:38:52.078Z,97055.08
2019-05-20T18:41:18.865Z,97055.30
2019-05-20T18:43:44.963Z,97052.73
2019-05-20T18:46:11.100Z,97041.53
2019-05-20T18:48:37.190Z,97038.94
2019-05-20T18:51:03.326Z,97043.80
2019-05-20T18:53:30.330Z,97044.76
2019-05-20T18:55:56.392Z,97052.31
2019-05-20T18:58:22.715Z,97045.51
2019-05-20T19:00:48.811Z,97049.58
2019-05-20T19:03:14.847Z,97046.14
2019-05-20T19:05:40.838Z,97054.73
2019-05-20T19:08:07.911Z,97060.92
2019-05-20T19:10:33.963Z,97063.58
2019-05-20T19:13:00.052Z,97070.89
2019-05-20T19:15:26.194Z,97062.35
2019-05-20T19:17:52.475Z,97067.08
2019-05-20T19:20:18.580Z,97060.89
2019-05-20T19:22:44.765Z,97066.20
2019-05-20T19:25:10.983Z,97059.60
2019-05-20T19:27:37.052Z,97064.55
2019-05-20T19:30:05.484Z,97064.00
2019-05-20T19:32:32.887Z,97057.73
2019-05-20T19:34:59.230Z,97061.70
2019-05-20T19:37:25.599Z,97061.19
2019-05-20T19:39:51.723Z,97064.09
2019-05-20T19:42:17.654Z,97061.92
2019-05-20T19:44:43.861Z,97068.55
2019-05-20T19:47:10.062Z,97072.83
2019-05-20T19:49:36.242Z,97043.00
2019-05-20T19:52:02.453Z,97078.03
2019-05-20T19:54:28.484Z,97081.33
2019-05-20T19:56:54.606Z,97079.61
2019-05-20T19:59:20.734Z,97083.44
2019-05-20T20:01:46.712Z,97078.48
2019-05-20T20:04:12.884Z,97084.44
2019-05-20T20:06:38.965Z,97080.06
2019-05-20T20:09:06.666Z,97080.72
2019-05-20T20:11:32.911Z,97084.15
2019-05-20T20:13:59.113Z,97079.44
2019-05-20T20:16:25.415Z,97095.95
2019-05-20T20:18:51.584Z,97086.95
2019-05-20T20:21:17.521Z,97091.88
2019-05-20T20:23:43.774Z,97096.37
2019-05-20T20:26:09.744Z,97096.84
2019-05-20T20:28:36.032Z,97104.72
2019-05-20T20:31:02.143Z,97000.37
2019-05-20T20:33:28.077Z,97120.95
2019-05-20T20:35:54.171Z,97118.38
2019-05-20T20:38:20.193Z,97118.59
2019-05-20T20:40:46.429Z,97112.37
2019-05-20T20:43:12.377Z,97110.59
2019-05-20T20:45:38.659Z,97118.84
2019-05-20T20:48:04.739Z,97122.12
2019-05-20T20:50:30.875Z,97118.95
2019-05-20T20:52:56.905Z,97120.03
2019-05-20T20:55:22.989Z,97130.80
2019-05-20T20:57:48.949Z,97109.67
2019-05-20T21:00:15.321Z,97106.38
2019-05-20T21:02:52.923Z,97100.12
2019-05-20T21:05:09.890Z,97103.36
2019-05-20T21:07:35.835Z,97105.16
2019-05-20T21:10:03.875Z,97101.22
2019-05-20T21:12:30.077Z,97107.50
2019-05-20T21:14:56.125Z,97109.47
2019-05-20T21:17:22.273Z,97103.47
2019-05-20T21:19:48.330Z,97109.17
2019-05-20T21:22:14.270Z,97101.37
2019-05-20T21:24:40.838Z,97095.52
2019-05-20T21:27:06.785Z,97094.19
2019-05-20T21:29:32.871Z,97092.90
2019-05-20T21:31:58.997Z,97102.63
2019-05-20T21:34:25.190Z,97095.05
2019-05-20T21:36:51.363Z,97097.98
2019-05-20T21:39:17.359Z,97105.37
2019-05-20T21:41:43.296Z,97103.16
2019-05-20T21:44:09.331Z,97102.38
2019-05-20T21:46:35.314Z,97097.55
2019-05-20T21:49:01.292Z,97093.34
2019-05-20T21:51:27.566Z,97099.83
2019-05-20T21:53:53.519Z,97096.47
2019-05-20T21:56:19.463Z,97096.99
2019-05-20T21:58:45.513Z,97099.86
2019-05-20T22:01:11.591Z,97104.57
2019-05-20T22:03:37.674Z,97099.53
2019-05-20T22:06:03.902Z,97103.83
2019-05-20T22:08:29.971Z,97095.55
2019-05-20T22:10:56.224Z,97101.84
2019-05-20T22:13:22.383Z,97103.91
2019-05-20T22:15:48.375Z,97102.58
2019-05-20T22:18:14.395Z,97099.83
2019-05-20T22:20:40.388Z,97091.13
2019-05-20T22:23:06.529Z,97089.41
2019-05-20T22:25:34.336Z,97091.13
2019-05-20T22:28:00.299Z,97083.55
2019-05-20T22:30:26.304Z,97076.48
2019-05-20T22:32:52.263Z,97070.78
2019-05-20T22:35:18.494Z,97072.48
2019-05-20T22:37:44.585Z,97081.45
2019-05-20T22:40:10.848Z,97077.28
2019-05-20T22:42:36.949Z,97069.00
2019-05-20T22:45:04.397Z,97066.13
2019-05-20T22:47:30.528Z,97059.40
2019-05-20T22:49:56.471Z,97062.05
2019-05-20T22:52:22.973Z,97049.43
2019-05-20T22:54:48.906Z,97041.34
2019-05-20T22:57:15.027Z,97037.37
2019-05-20T22:59:41.052Z,97038.51
2019-05-20T23:02:07.043Z,97032.25
2019-05-20T23:04:33.069Z,97039.39
2019-05-20T23:06:59.528Z,97030.45
2019-05-20T23:09:25.513Z,97027.87
2019-05-20T23:11:52.033Z,97026.11
2019-05-20T23:14:17.976Z,97020.52
2019-05-20T23:16:43.961Z,97014.38
2019-05-20T23:19:10.255Z,97016.69
2019-05-20T23:21:36.251Z,97014.04
2019-05-20T23:24:02.277Z,97021.95
2019-05-20T23:26:28.365Z,97020.26
2019-05-20T23:28:54.301Z,97023.38
2019-05-20T23:31:20.307Z,97010.69
2019-05-20T23:33:46.261Z,97002.70
2019-05-20T23:36:12.390Z,97001.94
2019-05-20T23:38:38.394Z,97005.28
2019-05-20T23:41:04.697Z,96988.95
2019-05-20T23:43:30.984Z,96984.97
2019-05-20T23:45:56.932Z,96989.83
2019-05-20T23:48:22.913Z,96992.11
2019-05-20T23:50:48.937Z,96989.98
2019-05-20T23:53:14.879Z,96994.80
2019-05-20T23:55:42.121Z,97004.95
2019-05-20T23:58:08.108Z,96993.33
